Time;durP1;ratioP1;P1;durP2;ratioP2;P2;SDS_P1;SDS_P2;PMS_P1;PMS_P2;Temp;Humidity;BMP_temperature;BMP_pressure;BME280_temperature;BME280_humidity;BME280_pressure;Samples;Min_cycle;Max_cycle;Signal;HPM_P1;HPM_P2
2023/01/03 00:01:59;;;;;;;4.95;2.33;;;;;;;0.76;61.46;99659.03;4764532;29;20042;-93
2023/01/03 00:04:25;;;;;;;3.70;2.05;;;;;;;0.67;61.93;99661.31;4778925;29;20161;-93
2023/01/03 00:07:02;;;;;;;5.93;2.25;;;;;;;0.25;61.92;99583.56;4766319;29;20411;-92
2023/01/03 00:09:31;;;;;;;7.78;2.20;;;;;;;0.75;62.06;99657.41;4794302;29;20046;-93
2023/01/03 00:14:43;;;;;;;4.90;2.17;;;;;;;0.51;62.32;99598.31;4793813;29;20043;-92
2023/01/03 00:17:11;;;;;;;10.40;2.40;;;;;;;0.63;61.85;99630.53;4779017;29;20125;-91
2023/01/03 00:19:41;;;;;;;4.88;2.30;;;;;;;0.24;61.91;99552.34;4778016;29;20047;-93
2023/01/03 00:22:09;;;;;;;6.55;2.60;;;;;;;0.99;62.30;99663.50;4763017;29;20091;-92
2023/01/03 00:24:38;;;;;;;4.85;2.08;;;;;;;0.40;62.44;99561.53;4778903;29;20145;-93
2023/01/03 00:27:04;;;;;;;6.47;2.10;;;;;;;0.49;61.81;99557.38;4778269;29;20552;-92
2023/01/03 00:29:56;;;;;;;10.70;2.20;;;;;;;1.00;61.73;99671.34;4763679;29;20123;-92
2023/01/03 00:32:40;;;;;;;5.70;1.92;;;;;;;0.48;61.78;99555.75;4778218;29;20042;-92
2023/01/03 00:35:07;;;;;;;4.35;1.92;;;;;;;0.57;61.09;99562.38;4793717;29;20072;-91
2023/01/03 00:37:33;;;;;;;7.18;2.00;;;;;;;0.58;61.71;99544.38;4763201;29;20038;-91
2023/01/03 00:40:03;;;;;;;5.55;1.85;;;;;;;0.85;61.71;99609.97;4777866;29;20575;-91
2023/01/03 00:43:27;;;;;;;7.22;1.65;;;;;;;0.94;61.63;99613.91;4777527;29;20039;-93
2023/01/03 00:45:41;;;;;;;11.80;2.60;;;;;;;1.16;61.61;99642.81;4778466;29;20062;-93
2023/01/03 00:48:49;;;;;;;5.75;1.70;;;;;;;1.09;61.53;99637.59;4791126;29;20141;-92
2023/01/03 00:51:45;;;;;;;6.82;2.17;;;;;;;0.42;61.71;99525.25;4775264;30;20540;-91
2023/01/03 00:54:58;;;;;;;6.03;1.77;;;;;;;0.60;61.59;99591.50;4781421;30;20047;-93
2023/01/03 00:57:24;;;;;;;4.22;1.98;;;;;;;0.50;61.77;99556.34;4786384;30;20051;-92
2023/01/03 00:59:50;;;;;;;7.20;2.05;;;;;;;0.48;62.15;99558.44;4763227;29;20047;-92
2023/01/03 01:02:19;;;;;;;5.60;1.83;;;;;;;0.49;62.37;99538.56;4779654;29;20066;-93
2023/01/03 01:05:10;;;;;;;6.35;2.17;;;;;;;0.76;61.65;99571.03;4756623;30;20056;-91
2023/01/03 01:07:36;;;;;;;5.70;2.05;;;;;;;0.77;62.08;99578.09;4728441;30;20067;-92
2023/01/03 01:10:03;;;;;;;5.78;2.00;;;;;;;0.34;62.00;99495.28;4755954;30;20051;-90
2023/01/03 01:12:30;;;;;;;;;;;;;;;1.13;62.07;99611.00;4737578;30;20055;-92
2023/01/03 01:14:56;;;;;;;6.05;2.03;;;;;;;0.74;61.89;99532.00;4770830;30;19962;-93
2023/01/03 01:17:22;;;;;;;7.45;2.08;;;;;;;0.77;61.73;99558.44;4774308;30;20074;-91
2023/01/03 01:19:48;;;;;;;3.90;2.03;;;;;;;0.65;61.63;99547.72;4774120;30;20050;-93
2023/01/03 01:22:15;;;;;;;5.43;1.83;;;;;;;0.65;61.45;99513.56;4759228;30;20055;-93
2023/01/03 01:24:41;;;;;;;4.90;1.92;;;;;;;0.79;61.15;99524.81;4754945;30;20050;-94
2023/01/03 01:27:10;;;;;;;7.07;2.00;;;;;;;0.76;61.56;99497.59;4759125;30;20070;-92
2023/01/03 01:29:39;;;;;;;6.03;2.15;;;;;;;0.82;60.62;99473.19;4759243;30;20055;-93
2023/01/03 01:32:06;;;;;;;4.38;2.08;;;;;;;0.86;61.08;99444.75;4743228;30;20062;-93
2023/01/03 01:34:32;;;;;;;3.63;1.92;;;;;;;0.80;60.65;99453.00;4758377;30;20039;-93
2023/01/03 01:37:23;;;;;;;5.43;1.98;;;;;;;0.89;60.48;99456.88;4779883;29;20103;-94
2023/01/03 01:39:49;;;;;;;10.95;2.10;;;;;;;1.16;60.62;99530.56;4748680;30;20175;-93
2023/01/03 01:47:58;;;;;;;3.83;2.10;;;;;;;0.94;60.74;99467.75;4861276;24;20050;-94
2023/01/03 01:57:43;;;;;;;5.15;2.25;;;;;;;0.89;60.25;99392.31;4886260;24;20069;-92
2023/01/03 02:00:11;;;;;;;2.88;1.80;;;;;;;1.18;59.09;99419.91;4810743;29;20562;-93
2023/01/03 02:02:58;;;;;;;4.53;1.83;;;;;;;1.19;59.26;99394.59;4809242;29;20050;-93
2023/01/03 02:06:07;;;;;;;6.68;2.00;;;;;;;1.99;58.71;99492.88;4780541;29;20054;-92
2023/01/03 02:08:45;;;;;;;7.35;2.25;;;;;;;1.50;57.92;99416.53;4789205;30;20195;-92
2023/01/03 02:15:32;;;;;;;4.75;2.28;;;;;;;1.70;58.57;99475.25;4740715;30;20063;-94
2023/01/03 02:18:47;;;;;;;7.43;2.70;;;;;;;1.57;59.21;99479.13;4768124;24;20438;-92
2023/01/03 02:21:59;;;;;;;6.88;2.45;;;;;;;1.58;59.31;99470.78;4775354;29;20090;-93
2023/01/03 02:31:54;;;;;;;9.00;3.10;;;;;;;1.51;59.59;99413.59;4737289;30;20056;-93
2023/01/03 02:34:53;;;;;;;8.02;2.80;;;;;;;1.61;59.90;99439.84;4715161;30;20071;-93
2023/01/03 02:37:30;;;;;;;7.85;3.00;;;;;;;1.59;60.26;99434.72;4721969;30;20139;-92
2023/01/03 02:40:14;;;;;;;8.43;2.85;;;;;;;1.53;59.89;99398.00;4722656;30;20044;-92
2023/01/03 02:43:04;;;;;;;8.95;2.55;;;;;;;1.26;59.82;99351.31;4723011;30;20052;-92
2023/01/03 02:46:22;;;;;;;10.63;2.92;;;;;;;1.65;60.21;99408.63;4736590;24;20138;-93
2023/01/03 02:49:35;;;;;;;10.55;2.72;;;;;;;1.63;60.10;99414.28;4885129;24;20049;-96
2023/01/03 02:52:57;;;;;;;;;;;;;;;;;;;;;
2023/01/03 02:56:11;;;;;;;14.50;3.78;;;;;;;0.79;61.27;99347.22;4643025;30;20585;-94
2023/01/03 02:59:10;;;;;;;10.73;3.55;;;;;;;1.34;61.53;99405.56;4654182;30;20057;-94
2023/01/03 03:09:10;;;;;;;9.77;2.85;;;;;;;1.07;64.96;99392.03;4614428;31;20063;-94
2023/01/03 03:24:48;;;;;;;8.43;2.80;;;;;;;0.51;67.30;99315.09;4761144;30;20593;-93
2023/01/03 03:26:08;;;;;;;7.10;2.90;;;;;;;0.48;67.08;99251.84;4788686;24;20093;-93
2023/01/03 03:29:26;;;;;;;6.65;2.70;;;;;;;1.17;67.18;99359.84;4787834;30;20138;-93
2023/01/03 03:32:42;;;;;;;6.97;2.38;;;;;;;1.17;67.16;99351.78;4787116;30;20040;-92
2023/01/03 03:35:13;;;;;;;6.03;2.60;;;;;;;0.81;67.59;99298.56;4772451;30;20086;-92
2023/01/03 03:37:41;;;;;;;5.15;2.28;;;;;;;0.42;67.83;99237.50;4788275;24;20055;-92
2023/01/03 03:51:06;;;;;;;7.80;2.40;;;;;;;0.80;68.31;99253.88;4790485;29;20114;-91
2023/01/03 03:53:34;;;;;;;6.63;1.98;;;;;;;0.66;67.92;99240.81;4768669;30;20054;-91
2023/01/03 03:56:07;;;;;;;5.20;2.53;;;;;;;0.49;68.75;99226.56;4772581;30;20058;-93
2023/01/03 03:59:05;;;;;;;7.00;2.70;;;;;;;0.42;68.63;99178.34;4771722;30;20506;-91
2023/01/03 04:01:34;;;;;;;5.50;2.63;;;;;;;0.77;68.29;99184.44;4790073;29;20134;-90
2023/01/03 04:04:29;;;;;;;11.07;3.97;;;;;;;1.20;67.21;99205.06;4771620;30;20054;-91
2023/01/03 04:06:55;;;;;;;10.52;3.50;;;;;;;1.05;66.89;99157.25;4801352;29;20048;-92
2023/01/03 04:09:23;;;;;;;6.72;2.53;;;;;;;1.72;66.38;99235.97;4791380;29;20047;-91
2023/01/03 04:11:49;;;;;;;;;;;;;;;1.83;66.24;99251.97;4776712;30;20051;-93
2023/01/03 04:14:15;;;;;;;5.93;2.10;;;;;;;1.92;65.91;99251.50;4798448;29;19950;-92
2023/01/03 04:16:50;;;;;;;6.10;2.15;;;;;;;1.50;65.72;99174.91;4793550;29;20099;-91
2023/01/03 04:19:42;;;;;;;5.07;2.42;;;;;;;1.84;66.22;99245.50;4791760;29;20058;-92
2023/01/03 04:22:08;;;;;;;4.63;1.90;;;;;;;1.80;66.17;99230.94;4790007;30;20536;-92
2023/01/03 04:24:34;;;;;;;4.40;2.10;;;;;;;1.23;66.04;99125.69;4790483;29;20070;-92
2023/01/03 04:27:16;;;;;;;10.02;2.08;;;;;;;1.26;66.64;99134.06;4791523;29;20039;-93
2023/01/03 04:29:42;;;;;;;5.18;1.65;;;;;;;1.49;66.24;99142.84;4787860;30;20073;-93
2023/01/03 04:32:10;;;;;;;6.38;2.33;;;;;;;1.31;66.05;99080.22;4787692;30;20078;-93
2023/01/03 04:34:38;;;;;;;4.93;1.70;;;;;;;1.81;65.73;99143.59;4805488;29;20051;-92
2023/01/03 04:37:07;;;;;;;5.68;2.03;;;;;;;1.63;65.99;99112.50;4788750;29;20076;-94
2023/01/03 04:39:33;;;;;;;3.67;1.85;;;;;;;1.40;65.82;99070.59;4773363;30;20048;-93
2023/01/03 04:42:00;;;;;;;7.57;2.35;;;;;;;1.63;65.95;99111.72;4761305;30;20047;-94
2023/01/03 04:44:27;;;;;;;6.90;2.53;;;;;;;1.55;65.78;99096.81;4779758;29;20059;-94
2023/01/03 04:46:53;;;;;;;5.90;2.60;;;;;;;1.31;66.09;99047.09;4868559;24;20062;-94
2023/01/03 04:50:09;;;;;;;5.93;2.50;;;;;;;1.73;67.05;99154.06;4811353;29;20146;-92
2023/01/03 04:52:36;;;;;;;6.70;2.40;;;;;;;1.65;66.76;99101.47;4811360;29;20042;-93
2023/01/03 04:55:09;;;;;;;;;;;;;;;1.92;66.63;99135.59;4812071;29;20504;-93
2023/01/03 04:58:04;;;;;;;3.25;1.98;;;;;;;1.97;66.45;99122.16;4819373;29;19982;-92
2023/01/03 05:00:33;;;;;;;6.18;2.25;;;;;;;1.82;66.55;99109.38;4838681;24;20068;-91
2023/01/03 05:03:01;;;;;;;9.45;2.72;;;;;;;1.47;66.81;99048.84;4798807;29;20035;-93
2023/01/03 05:05:28;;;;;;;7.68;2.60;;;;;;;1.74;66.12;99064.88;4807626;29;20046;-93
2023/01/03 05:08:02;;;;;;;4.38;2.05;;;;;;;1.25;66.08;98978.94;4802825;24;20149;-92
2023/01/03 05:11:28;;;;;;;6.57;2.60;;;;;;;2.04;66.25;99087.69;4823600;29;20561;-92
2023/01/03 05:13:54;;;;;;;4.75;2.22;;;;;;;1.44;65.66;98975.81;4779027;29;20043;-91
2023/01/03 05:16:20;;;;;;;4.72;2.58;;;;;;;1.31;65.85;98950.16;4812196;24;20054;-93
2023/01/03 05:18:52;;;;;;;4.72;2.30;;;;;;;1.67;65.64;99005.03;4838937;24;20059;-94
2023/01/03 05:27:14;;;;;;;5.65;2.50;;;;;;;1.96;66.84;99075.50;4779573;29;20410;-91
2023/01/03 05:29:52;;;;;;;6.72;2.42;;;;;;;2.01;66.48;99055.84;4778013;29;20047;-92
2023/01/03 05:32:19;;;;;;;7.93;3.15;;;;;;;1.63;66.55;98979.69;4808859;29;20074;-93
2023/01/03 05:34:52;;;;;;;4.72;2.50;;;;;;;1.70;67.08;99011.78;4810756;29;20042;-93
2023/01/03 05:40:43;;;;;;;5.03;2.28;;;;;;;1.75;66.68;98990.25;4824372;24;20069;-93
2023/01/03 05:43:10;;;;;;;4.45;2.13;;;;;;;1.98;67.08;99024.81;4795587;29;20083;-93
2023/01/03 05:46:14;;;;;;;2.77;2.00;;;;;;;2.14;66.54;99012.22;4809885;29;20042;-92
2023/01/03 05:49:05;;;;;;;4.20;2.22;;;;;;;2.10;66.42;99016.53;4810429;29;20050;-93
2023/01/03 05:51:31;;;;;;;5.45;2.40;;;;;;;1.74;66.40;98954.41;4795324;29;20592;-94
2023/01/03 05:54:00;;;;;;;6.38;2.47;;;;;;;1.49;66.06;98925.50;4810584;29;20058;-92
2023/01/03 05:56:27;;;;;;;8.77;2.43;;;;;;;1.77;66.40;98961.16;4810418;29;20068;-92
2023/01/03 06:01:49;;;;;;;3.75;2.22;;;;;;;1.81;66.04;98935.28;4825293;29;20050;-92
2023/01/03 06:04:17;;;;;;;5.40;2.38;;;;;;;1.39;66.59;98893.09;4795350;29;20452;-94
2023/01/03 06:06:43;;;;;;;4.88;2.45;;;;;;;1.91;66.62;98964.16;4825871;29;20038;-93
2023/01/03 06:09:10;;;;;;;4.07;2.27;;;;;;;1.73;66.71;98920.47;4841039;29;20042;-93
2023/01/03 06:11:39;;;;;;;4.00;2.13;;;;;;;2.28;66.43;98966.69;4796290;29;20050;-93
2023/01/03 06:14:19;;;;;;;;;;;;;;;;;;;;;
2023/01/03 06:20:08;;;;;;;7.43;2.40;;;;;;;1.82;66.86;98908.09;4777627;29;20043;-94
2023/01/03 06:22:37;;;;;;;6.97;2.72;;;;;;;1.96;67.52;98962.31;4806561;29;20131;-93
2023/01/03 06:25:11;;;;;;;4.03;2.15;;;;;;;1.76;67.66;98916.44;4778141;29;20084;-93
2023/01/03 06:27:42;;;;;;;4.70;2.20;;;;;;;1.59;67.52;98857.34;4777826;29;20050;-94
2023/01/03 06:30:58;;;;;;;3.13;1.77;;;;;;;2.18;67.54;98942.38;4781233;29;20039;-93
2023/01/03 06:33:46;;;;;;;4.78;2.15;;;;;;;1.86;66.97;98860.66;4792009;29;20051;-94
2023/01/03 06:36:25;;;;;;;;;;;;;;;;;;;;;
2023/01/03 06:39:57;;;;;;;7.00;2.30;;;;;;;2.32;66.63;98898.47;4780156;29;20081;-92
2023/01/03 06:43:04;;;;;;;;;;;;;;;;;;;;;
2023/01/03 06:53:12;;;;;;;7.47;2.67;;;;;;;1.51;67.81;98791.34;4770583;30;20193;-93
2023/01/03 06:55:41;;;;;;;7.05;2.80;;;;;;;2.00;68.37;98863.66;4796653;29;20399;-94
2023/01/03 06:58:07;;;;;;;;;;;;;;;2.15;68.42;98867.41;4758792;30;20051;-95
2023/01/03 07:00:38;;;;;;;4.55;2.30;;;;;;;1.43;68.74;98758.75;4763180;30;19983;-92
2023/01/03 07:03:05;;;;;;;6.75;2.70;;;;;;;1.62;67.70;98749.91;4758152;30;20047;-92
2023/01/03 07:05:31;;;;;;;8.70;4.77;;;;;;;1.62;67.30;98757.16;4739104;30;20047;-95
2023/01/03 07:07:58;;;;;;;10.57;5.33;;;;;;;2.06;67.36;98810.56;4778886;30;20073;-94
2023/01/03 07:10:24;;;;;;;10.03;5.40;;;;;;;1.72;67.09;98761.75;4771686;30;20051;-94
2023/01/03 07:15:35;;;;;;;11.23;5.32;;;;;;;1.93;67.01;98765.25;4764833;29;20103;-94
2023/01/03 07:18:01;;;;;;;8.52;4.53;;;;;;;2.06;67.33;98776.31;4793890;29;20103;-94
2023/01/03 07:20:28;;;;;;;8.63;5.30;;;;;;;1.78;67.20;98736.41;4781422;29;20575;-94
2023/01/03 07:22:54;;;;;;;8.57;4.30;;;;;;;2.31;66.99;98777.34;4782602;29;20039;-92
2023/01/03 07:25:20;;;;;;;8.45;3.95;;;;;;;1.65;67.11;98690.06;4782320;29;20055;-92
2023/01/03 07:27:55;;;;;;;9.80;3.97;;;;;;;1.90;67.79;98742.34;4780640;29;20053;-92
2023/01/03 07:30:21;;;;;;;7.55;4.38;;;;;;;2.02;68.03;98742.06;4782538;29;20047;-93
2023/01/03 07:32:48;;;;;;;8.13;4.93;;;;;;;1.78;67.98;98696.81;4810547;29;20055;-95
2023/01/03 07:35:14;;;;;;;11.57;7.00;;;;;;;2.10;68.10;98733.44;4779360;29;20496;-96
2023/01/03 07:37:40;;;;;;;12.23;5.90;;;;;;;2.15;67.94;98730.72;4784650;29;20281;-92
2023/01/03 07:40:07;;;;;;;10.48;5.50;;;;;;;1.99;67.88;98692.22;4824956;29;20051;-93
2023/01/03 07:45:17;;;;;;;8.10;4.68;;;;;;;2.47;67.48;98734.97;4799232;29;20074;-93
2023/01/03 07:47:45;;;;;;;9.57;4.68;;;;;;;2.22;67.51;98719.66;4791193;29;20072;-92
2023/01/03 07:50:13;;;;;;;9.57;4.68;;;;;;;1.96;67.47;98675.78;4820638;29;20118;-92
2023/01/03 07:52:40;;;;;;;7.97;4.60;;;;;;;2.49;67.64;98730.94;4817734;29;20122;-95
2023/01/03 07:55:09;;;;;;;8.20;4.50;;;;;;;2.47;67.49;98727.69;4802735;29;20048;-94
2023/01/03 07:57:36;;;;;;;8.48;4.15;;;;;;;2.05;67.62;98653.41;4814790;29;20103;-96
2023/01/03 08:00:04;;;;;;;9.23;4.63;;;;;;;1.86;68.02;98646.97;4818846;29;20046;-96
2023/01/03 08:02:38;;;;;;;8.55;5.20;;;;;;;1.96;68.30;98644.25;4830466;29;20074;-93
2023/01/03 08:05:10;;;;;;;10.75;5.57;;;;;;;2.55;68.08;98719.06;4846319;29;20330;-96
2023/01/03 08:07:39;;;;;;;10.85;5.38;;;;;;;2.44;67.70;98681.56;4831359;29;20043;-96
2023/01/03 08:15:36;;;;;;;9.30;5.50;;;;;;;2.62;68.09;98688.28;4827461;29;20018;-92
2023/01/03 08:18:04;;;;;;;12.70;5.07;;;;;;;2.63;67.82;98657.50;4834003;29;20098;-91
2023/01/03 08:20:30;;;;;;;7.55;4.72;;;;;;;2.56;67.61;98641.63;4845058;29;20067;-94
2023/01/03 08:22:59;;;;;;;8.07;4.28;;;;;;;2.39;67.28;98595.31;4834537;29;20050;-94
2023/01/03 08:25:26;;;;;;;7.43;4.18;;;;;;;2.79;67.12;98642.84;4849383;29;20087;-92
2023/01/03 08:34:02;;;;;;;9.68;5.53;;;;;;;2.75;67.72;98636.41;4903676;23;20049;-91
2023/01/03 08:37:00;;;;;;;8.93;5.43;;;;;;;3.01;67.61;98655.94;4749265;30;20087;-95
2023/01/03 08:39:49;;;;;;;10.10;5.78;;;;;;;2.95;68.10;98657.06;4746342;30;20048;-94
2023/01/03 08:42:19;;;;;;;8.82;5.60;;;;;;;2.74;68.49;98615.88;4730183;30;20048;-93
2023/01/03 08:44:47;;;;;;;9.63;5.47;;;;;;;2.78;68.11;98609.66;4742998;30;20427;-92
2023/01/03 08:47:16;;;;;;;9.88;4.65;;;;;;;2.91;67.93;98597.41;4746366;30;20476;-94
2023/01/03 08:49:43;;;;;;;8.73;5.53;;;;;;;3.26;67.67;98638.78;4741837;30;20032;-95
2023/01/03 08:52:09;;;;;;;9.57;5.30;;;;;;;2.97;67.41;98584.69;4751854;30;20063;-95
2023/01/03 08:54:46;;;;;;;7.28;4.18;;;;;;;2.60;67.88;98515.88;4772651;30;20123;-95
2023/01/03 08:57:12;;;;;;;8.88;5.22;;;;;;;2.66;67.97;98495.84;4761697;30;20052;-95
2023/01/03 09:00:19;;;;;;;8.13;5.20;;;;;;;2.87;68.09;98539.69;4753709;30;20047;-96
2023/01/03 09:02:46;;;;;;;9.75;4.82;;;;;;;3.11;68.51;98576.75;4734228;30;20072;-94
2023/01/03 09:05:13;;;;;;;7.45;4.93;;;;;;;3.04;68.19;98531.19;4749629;30;20059;-92
2023/01/03 09:07:40;;;;;;;9.10;4.32;;;;;;;2.83;67.62;98498.16;4745083;30;20047;-92
2023/01/03 09:10:33;;;;;;;;;;;;;;;3.58;67.48;98586.09;4754616;30;20080;-93
2023/01/03 09:13:26;;;;;;;7.57;4.65;;;;;;;3.59;67.61;98585.00;4774070;30;19979;-90
2023/01/03 09:16:30;;;;;;;7.03;4.13;;;;;;;3.26;68.71;98580.16;4740701;30;20048;-93
2023/01/03 09:19:17;;;;;;;5.65;3.58;;;;;;;2.94;69.08;98515.88;4746986;30;20135;-92
2023/01/03 09:21:44;;;;;;;7.95;4.45;;;;;;;2.90;68.71;98489.75;4729637;30;20150;-95
2023/01/03 09:24:11;;;;;;;9.60;4.78;;;;;;;2.74;69.07;98451.25;4728168;30;20110;-94
2023/01/03 09:26:37;;;;;;;7.88;4.53;;;;;;;3.14;68.62;98493.28;4721720;30;20044;-94
2023/01/03 09:29:04;;;;;;;8.13;4.00;;;;;;;3.00;67.74;98435.66;4751392;30;20060;-93
2023/01/03 09:31:33;;;;;;;6.60;4.33;;;;;;;2.83;68.23;98430.69;4755075;30;20064;-91
2023/01/03 09:34:02;;;;;;;8.45;4.45;;;;;;;3.26;67.97;98472.13;4747143;30;20048;-91
2023/01/03 09:36:44;;;;;;;7.65;3.95;;;;;;;3.48;67.90;98489.75;4737956;30;20063;-96
2023/01/03 09:39:35;;;;;;;5.25;3.72;;;;;;;3.24;68.07;98441.88;4751025;30;20055;-93
2023/01/03 09:45:01;;;;;;;6.00;3.58;;;;;;;3.64;68.44;98504.69;4764845;30;20480;-92
2023/01/03 09:47:42;;;;;;;5.53;3.80;;;;;;;3.35;68.78;98458.00;4842509;24;20098;-93
2023/01/03 09:50:31;;;;;;;5.22;3.40;;;;;;;3.44;68.65;98467.88;4808433;29;20059;-90
2023/01/03 10:05:13;;;;;;;5.65;3.53;;;;;;;3.14;68.59;98352.88;4760956;30;20032;-90
2023/01/03 10:08:21;;;;;;;4.20;2.97;;;;;;;4.05;68.36;98465.53;4753733;30;20553;-93
2023/01/03 10:11:20;;;;;;;6.75;3.50;;;;;;;3.56;67.89;98382.91;4763841;30;20073;-93
2023/01/03 10:14:12;;;;;;;5.50;3.50;;;;;;;3.55;67.99;98363.19;4752646;30;20060;-93
2023/01/03 10:16:59;;;;;;;6.82;3.45;;;;;;;3.36;68.33;98352.34;4774305;30;20036;-91
2023/01/03 10:19:42;;;;;;;5.32;3.55;;;;;;;3.72;68.55;98412.16;4764493;30;20535;-91
2023/01/03 10:22:24;;;;;;;8.38;5.22;;;;;;;4.01;68.64;98438.28;4732978;30;20052;-91
2023/01/03 10:25:07;;;;;;;9.50;5.25;;;;;;;3.86;69.14;98423.06;4797114;29;20054;-93
2023/01/03 10:27:42;;;;;;;8.70;5.30;;;;;;;3.28;68.63;98307.09;4785296;29;20046;-93
2023/01/03 10:30:16;;;;;;;5.53;3.78;;;;;;;3.96;68.71;98403.97;4809583;29;20058;-93
2023/01/03 10:33:25;;;;;;;5.70;3.85;;;;;;;3.43;68.14;98285.25;4819706;29;20051;-93
2023/01/03 10:35:53;;;;;;;9.30;4.40;;;;;;;3.47;68.11;98299.78;4799958;29;20432;-92
2023/01/03 10:38:21;;;;;;;4.03;3.17;;;;;;;3.56;68.30;98348.59;4783598;24;20089;-90
2023/01/03 10:40:58;;;;;;;4.82;3.35;;;;;;;3.84;68.77;98379.31;4778967;29;20047;-92
2023/01/03 10:43:30;;;;;;;5.93;3.30;;;;;;;3.64;68.73;98317.41;4764759;29;20045;-91
2023/01/03 10:46:02;;;;;;;8.88;3.80;;;;;;;4.07;68.46;98372.19;4777370;29;20095;-90
2023/01/03 10:48:47;;;;;;;9.65;5.55;;;;;;;3.20;68.76;98283.41;4754524;30;20052;-93
2023/01/03 10:51:50;;;;;;;7.63;4.65;;;;;;;3.96;69.34;98386.97;4777313;30;20521;-95
2023/01/03 10:54:17;;;;;;;7.38;4.47;;;;;;;4.13;68.83;98370.22;4739159;30;20155;-92
2023/01/03 10:56:46;;;;;;;7.40;4.90;;;;;;;3.56;68.17;98259.41;4725002;30;20048;-94
2023/01/03 10:59:16;;;;;;;9.20;5.30;;;;;;;4.42;67.88;98367.34;4722744;30;20056;-94
2023/01/03 11:02:15;;;;;;;11.98;6.10;;;;;;;4.45;67.98;98356.72;4708010;30;20048;-94
2023/01/03 11:04:43;;;;;;;10.93;6.28;;;;;;;3.87;67.70;98248.94;4709875;30;20052;-93
2023/01/03 11:07:12;;;;;;;;;;;;;;;4.47;67.56;98345.63;4723693;30;20593;-91
2023/01/03 11:09:58;;;;;;;11.05;7.35;;;;;;;3.62;68.54;98263.66;4712839;30;19922;-94
2023/01/03 11:12:43;;;;;;;15.43;7.97;;;;;;;3.71;68.61;98247.59;4736747;30;20060;-95
2023/01/03 11:15:38;;;;;;;13.00;7.95;;;;;;;3.76;68.72;98244.78;4724230;30;20048;-95
2023/01/03 11:18:28;;;;;;;;;;;;;;;;;;;;;
2023/01/03 11:21:14;;;;;;;20.30;10.15;;;;;;;4.42;69.00;98324.03;4723523;30;20068;-93
2023/01/03 11:24:08;;;;;;;17.35;10.07;;;;;;;3.82;68.60;98213.09;4728004;30;20048;-92
2023/01/03 11:26:54;;;;;;;19.48;10.55;;;;;;;3.71;68.92;98228.69;4766707;29;20089;-92
2023/01/03 11:30:29;;;;;;;16.90;9.90;;;;;;;3.98;70.40;98317.19;4753033;29;20087;-95
2023/01/03 11:34:03;;;;;;;;;;;;;;;;;;;;;
2023/01/03 11:37:18;;;;;;;19.80;11.57;;;;;;;3.98;71.15;98312.56;4762368;30;20066;-93
2023/01/03 11:40:36;;;;;;;30.67;15.75;;;;;;;3.68;71.37;98299.53;4778235;30;20098;-94
2023/01/03 11:43:22;;;;;;;29.58;14.18;;;;;;;3.80;72.10;98299.88;4778328;29;20137;-91
2023/01/03 11:46:05;;;;;;;29.70;16.00;;;;;;;3.56;71.80;98264.03;4785954;29;20051;-85
2023/01/03 11:48:53;;;;;;;30.85;14.82;;;;;;;3.73;72.21;98292.13;4762947;29;20046;-87
2023/01/03 11:51:43;;;;;;;28.13;14.30;;;;;;;3.48;72.87;98247.38;4764292;29;20535;-86
2023/01/03 11:54:53;;;;;;;25.10;14.30;;;;;;;3.39;73.11;98237.53;4772291;30;20047;-86
2023/01/03 11:57:35;;;;;;;27.95;13.73;;;;;;;3.81;72.84;98289.84;4782733;29;20048;-88
2023/01/03 12:00:21;;;;;;;25.63;13.27;;;;;;;3.70;73.53;98289.22;4790747;29;20471;-86
2023/01/03 12:03:03;;;;;;;32.17;13.65;;;;;;;3.57;73.82;98269.13;4766597;29;20043;-89
2023/01/03 12:05:48;;;;;;;31.73;12.75;;;;;;;3.66;74.41;98286.28;4794005;29;20506;-90
2023/01/03 12:08:43;;;;;;;34.03;12.20;;;;;;;3.64;74.55;98276.88;4743072;30;20052;-88
2023/01/03 12:11:12;;;;;;;22.02;12.02;;;;;;;3.52;74.58;98253.81;4736824;30;20313;-90
2023/01/03 12:13:56;;;;;;;32.88;12.75;;;;;;;3.59;74.68;98277.75;4741665;30;20140;-91
2023/01/03 12:16:40;;;;;;;24.38;11.98;;;;;;;3.61;75.09;98272.03;4773392;30;20054;-89
2023/01/03 12:19:28;;;;;;;25.17;11.85;;;;;;;3.58;75.44;98273.44;4768004;30;20558;-88
2023/01/03 12:22:11;;;;;;;25.63;13.90;;;;;;;3.67;76.11;98270.88;4768285;30;20051;-88
2023/01/03 12:25:09;;;;;;;26.25;12.75;;;;;;;3.74;75.83;98260.50;4766994;30;20135;-86
2023/01/03 12:27:43;;;;;;;29.10;12.82;;;;;;;3.52;75.47;98226.78;4749379;30;20040;-90
2023/01/03 12:30:56;;;;;;;32.47;13.43;;;;;;;3.41;75.56;98208.31;4768622;30;20047;-86
2023/01/03 12:33:41;;;;;;;34.65;15.95;;;;;;;3.62;76.48;98270.97;4753418;30;20067;-91
2023/01/03 12:36:22;;;;;;;48.72;23.95;;;;;;;3.64;77.10;98263.34;4742353;30;20049;-90
2023/01/03 12:39:17;;;;;;;45.10;22.20;;;;;;;3.63;77.27;98254.44;4756577;30;20039;-90
2023/01/03 12:42:02;;;;;;;54.95;25.52;;;;;;;3.64;77.14;98252.53;4766355;30;20631;-87
2023/01/03 12:44:52;;;;;;;162.32;51.40;;;;;;;3.70;77.01;98244.06;4756214;30;20167;-88
2023/01/03 12:47:58;;;;;;;58.95;26.10;;;;;;;3.73;77.11;98246.19;4771941;29;20144;-88
2023/01/03 12:50:44;;;;;;;36.33;15.88;;;;;;;3.63;77.20;98234.72;4766432;30;20051;-86
2023/01/03 12:53:20;;;;;;;45.87;22.83;;;;;;;3.67;76.98;98257.38;4758887;30;20189;-90
2023/01/03 12:56:05;;;;;;;52.25;23.10;;;;;;;3.75;77.10;98249.41;4755107;30;20051;-87
2023/01/03 12:58:37;;;;;;;62.28;28.90;;;;;;;3.66;77.80;98258.47;4756958;30;20044;-92
2023/01/03 13:01:14;;;;;;;46.60;20.20;;;;;;;3.68;78.12;98262.50;4759302;30;20055;-90
2023/01/03 13:04:01;;;;;;;63.45;28.88;;;;;;;3.51;78.50;98230.59;4740103;30;20462;-86
2023/01/03 13:06:34;;;;;;;81.03;37.80;;;;;;;3.33;78.49;98201.69;4715687;30;20067;-92
2023/01/03 13:09:15;;;;;;;49.17;25.08;;;;;;;3.56;79.02;98228.91;4726366;30;20057;-88
2023/01/03 13:11:53;;;;;;;37.50;18.40;;;;;;;3.53;78.80;98201.38;4734023;30;20060;-90
2023/01/03 13:14:26;;;;;;;38.38;18.70;;;;;;;3.55;78.72;98189.47;4708806;30;20143;-87
2023/01/03 13:16:55;;;;;;;56.55;31.15;;;;;;;4.02;78.42;98256.00;4714713;30;20048;-93
2023/01/03 13:19:22;;;;;;;44.97;20.08;;;;;;;4.04;78.79;98253.81;4744397;30;20071;-90
2023/01/03 13:21:57;;;;;;;35.50;20.63;;;;;;;3.79;78.82;98210.97;4726589;30;20044;-87
2023/01/03 13:24:42;;;;;;;37.88;17.95;;;;;;;3.88;79.06;98212.72;4724412;30;20052;-92
2023/01/03 13:27:23;;;;;;;32.60;15.32;;;;;;;4.24;78.95;98255.38;4702334;30;20041;-93
2023/01/03 13:29:49;;;;;;;30.83;12.43;;;;;;;4.26;78.80;98260.47;4707388;30;20152;-91
2023/01/03 13:32:23;;;;;;;22.85;13.05;;;;;;;4.25;78.80;98259.69;4722749;30;20139;-88
2023/01/03 13:34:55;;;;;;;22.90;12.15;;;;;;;4.36;78.79;98257.59;4745846;30;20648;-87
2023/01/03 13:37:28;;;;;;;21.40;11.57;;;;;;;4.28;78.70;98242.06;4738915;30;20048;-91
2023/01/03 13:40:01;;;;;;;24.25;11.98;;;;;;;4.03;79.17;98203.53;4740636;30;20060;-87
2023/01/03 13:42:38;;;;;;;26.10;10.32;;;;;;;4.46;79.50;98271.72;4808146;29;20186;-86
2023/01/03 13:45:14;;;;;;;22.95;11.68;;;;;;;4.52;79.80;98266.22;4785978;30;20579;-88
2023/01/03 13:47:53;;;;;;;27.05;14.82;;;;;;;4.36;79.70;98241.34;4777772;29;20051;-88
2023/01/03 13:50:32;;;;;;;15.40;9.02;;;;;;;4.44;79.97;98246.88;4790724;29;20054;-87
2023/01/03 13:53:24;;;;;;;23.08;12.27;;;;;;;4.46;79.56;98235.75;4781770;29;20078;-85
2023/01/03 13:56:16;;;;;;;17.65;8.40;;;;;;;4.72;80.05;98263.94;4768627;30;20142;-88
2023/01/03 13:58:52;;;;;;;15.82;8.98;;;;;;;4.48;79.44;98220.03;4787346;29;20112;-87
2023/01/03 14:01:25;;;;;;;15.13;7.20;;;;;;;4.46;79.88;98227.63;4781770;29;20042;-90
2023/01/03 14:04:19;;;;;;;20.58;8.20;;;;;;;4.90;79.44;98264.97;4779389;30;20057;-90
2023/01/03 14:07:20;;;;;;;13.85;7.32;;;;;;;4.51;79.08;98208.59;4759316;30;20055;-89
2023/01/03 14:10:12;;;;;;;19.05;10.27;;;;;;;5.02;79.13;98267.16;4746481;30;20078;-90
2023/01/03 14:13:15;;;;;;;20.95;9.43;;;;;;;5.00;78.88;98266.66;4785932;30;20429;-90
2023/01/03 14:15:41;;;;;;;20.95;10.00;;;;;;;5.05;79.27;98252.19;4790256;30;20054;-90
2023/01/03 14:18:24;;;;;;;25.75;10.15;;;;;;;5.09;78.95;98256.69;4761012;30;20039;-90
2023/01/03 14:20:54;;;;;;;17.17;8.98;;;;;;;5.10;78.64;98257.50;4774628;30;20047;-89
2023/01/03 14:23:25;;;;;;;19.50;10.27;;;;;;;5.03;78.04;98236.25;4747707;30;20055;-89
2023/01/03 14:25:53;;;;;;;18.63;9.35;;;;;;;4.70;78.56;98163.28;4774462;30;20047;-88
2023/01/03 14:28:31;;;;;;;20.58;11.70;;;;;;;5.05;78.64;98222.41;4787872;30;20051;-89
2023/01/03 14:31:04;;;;;;;21.75;11.82;;;;;;;5.03;77.90;98216.47;4787139;29;20134;-91
2023/01/03 14:33:41;;;;;;;19.45;10.27;;;;;;;5.28;77.74;98253.06;4762920;29;20091;-91
2023/01/03 14:36:18;;;;;;;22.20;12.65;;;;;;;4.91;77.46;98198.84;4763010;29;20421;-86